createdAt,value
2023-01-13T00:00:14.058Z,980.20
2023-01-13T00:01:14.425Z,980.17
2023-01-13T00:02:14.020Z,980.14
2023-01-13T00:03:14.342Z,980.19
2023-01-13T00:04:13.930Z,980.12
2023-01-13T00:05:13.941Z,980.15
2023-01-13T00:06:13.921Z,980.09
2023-01-13T00:07:13.954Z,980.18
2023-01-13T00:08:13.920Z,980.09
2023-01-13T00:09:14.282Z,980.08
2023-01-13T00:10:13.900Z,980.04
2023-01-13T00:11:14.087Z,980.04
2023-01-13T00:12:14.236Z,980.02
2023-01-13T00:13:13.812Z,980.03
2023-01-13T00:14:13.847Z,980.04
2023-01-13T00:15:13.793Z,980.05
2023-01-13T00:16:13.990Z,980.07
2023-01-13T00:17:13.806Z,980.03
2023-01-13T00:18:13.754Z,980.06
2023-01-13T00:19:13.740Z,980.04
2023-01-13T00:20:13.971Z,980.03
2023-01-13T00:21:13.731Z,980.00
2023-01-13T00:22:13.717Z,980.00
2023-01-13T00:23:14.225Z,980.05
2023-01-13T00:24:13.687Z,980.07
2023-01-13T00:25:14.012Z,980.06
2023-01-13T00:26:13.672Z,979.84
2023-01-13T00:27:14.106Z,979.92
2023-01-13T00:28:14.013Z,979.94
2023-01-13T00:29:13.606Z,979.97
2023-01-13T00:30:13.611Z,979.92
2023-01-13T00:31:13.969Z,979.94
2023-01-13T00:32:13.850Z,979.93
2023-01-13T00:33:13.599Z,979.80
2023-01-13T00:34:13.933Z,979.69
2023-01-13T00:35:13.560Z,979.77
2023-01-13T00:36:13.757Z,979.80
2023-01-13T00:37:13.870Z,979.88
2023-01-13T00:38:13.528Z,979.82
2023-01-13T00:39:13.550Z,979.80
2023-01-13T00:40:13.863Z,979.84
2023-01-13T00:41:13.757Z,979.85
2023-01-13T00:42:13.491Z,979.79
2023-01-13T00:43:13.500Z,979.85
2023-01-13T00:44:13.430Z,979.86
2023-01-13T00:45:13.575Z,979.82
2023-01-13T00:46:13.442Z,979.90
2023-01-13T00:47:13.679Z,979.83
2023-01-13T00:48:13.380Z,979.83
2023-01-13T00:49:13.349Z,979.81
2023-01-13T00:50:13.348Z,979.83
2023-01-13T00:51:13.811Z,979.76
2023-01-13T00:52:13.316Z,979.80
2023-01-13T00:53:13.619Z,979.77
2023-01-13T00:54:13.286Z,979.78
2023-01-13T00:55:13.270Z,979.73
2023-01-13T00:56:13.609Z,979.58
2023-01-13T00:57:13.749Z,979.57
2023-01-13T00:58:13.649Z,979.71
2023-01-13T00:59:13.586Z,979.65
2023-01-13T01:00:13.189Z,979.64
2023-01-13T01:01:13.298Z,979.61
2023-01-13T01:02:13.274Z,979.64
2023-01-13T01:03:13.437Z,979.58
2023-01-13T01:04:13.602Z,979.58
2023-01-13T01:05:13.142Z,979.62
2023-01-13T01:06:13.261Z,979.57
2023-01-13T01:07:13.309Z,979.67
2023-01-13T01:08:13.142Z,979.50
2023-01-13T01:09:13.395Z,979.56
2023-01-13T01:10:13.068Z,979.55
2023-01-13T01:11:13.107Z,979.45
2023-01-13T01:12:13.037Z,979.56
2023-01-13T01:13:13.122Z,979.56
2023-01-13T01:14:13.179Z,979.52
2023-01-13T01:15:13.049Z,979.47
2023-01-13T01:16:13.269Z,979.52
2023-01-13T01:17:13.147Z,979.49
2023-01-13T01:18:13.207Z,979.44
2023-01-13T01:19:13.025Z,979.64
2023-01-13T01:20:13.035Z,979.54
2023-01-13T01:21:13.077Z,979.54
2023-01-13T01:22:13.152Z,979.43
2023-01-13T01:23:13.206Z,979.29
2023-01-13T01:24:13.216Z,979.45
2023-01-13T01:25:13.108Z,979.50
2023-01-13T01:26:13.075Z,979.44
2023-01-13T01:27:13.222Z,979.49
2023-01-13T01:28:13.075Z,979.48
2023-01-13T01:29:12.978Z,979.50
2023-01-13T01:30:13.085Z,979.56
2023-01-13T01:31:13.077Z,979.66
2023-01-13T01:32:12.783Z,979.48
2023-01-13T01:33:12.803Z,979.22
2023-01-13T01:34:12.768Z,979.51
2023-01-13T01:35:12.757Z,979.92
2023-01-13T01:36:12.740Z,979.84
2023-01-13T01:37:13.962Z,979.87
2023-01-13T01:38:13.044Z,979.90
2023-01-13T01:39:13.039Z,979.84
2023-01-13T01:40:13.211Z,979.78
2023-01-13T01:41:12.659Z,979.83
2023-01-13T01:42:12.739Z,980.15
2023-01-13T01:43:12.685Z,980.05
2023-01-13T01:44:12.822Z,980.02
2023-01-13T01:45:12.908Z,980.06
2023-01-13T01:46:12.618Z,979.99
2023-01-13T01:47:12.801Z,980.00
2023-01-13T01:48:12.627Z,980.00
2023-01-13T01:49:12.876Z,979.83
2023-01-13T01:50:12.543Z,980.06
2023-01-13T01:51:12.929Z,980.02
2023-01-13T01:52:12.853Z,979.97
2023-01-13T01:53:13.016Z,979.99
2023-01-13T01:54:12.595Z,980.05
2023-01-13T01:55:12.803Z,979.90
2023-01-13T01:56:12.697Z,980.07
2023-01-13T01:57:12.846Z,979.96
2023-01-13T01:58:12.489Z,979.99
2023-01-13T01:59:13.693Z,979.92
2023-01-13T02:00:12.653Z,979.97
2023-01-13T02:01:12.568Z,979.93
2023-01-13T02:02:13.382Z,979.98
2023-01-13T02:03:12.388Z,979.94
2023-01-13T02:04:12.709Z,979.87
2023-01-13T02:05:12.368Z,979.87
2023-01-13T02:06:12.327Z,979.77
2023-01-13T02:07:12.695Z,979.77
2023-01-13T02:08:12.568Z,979.72
2023-01-13T02:09:12.735Z,979.60
2023-01-13T02:10:12.282Z,979.66
2023-01-13T02:11:12.264Z,979.70
2023-01-13T02:12:12.292Z,979.58
2023-01-13T02:13:12.510Z,979.74
2023-01-13T02:14:12.450Z,979.62
2023-01-13T02:15:12.428Z,979.58
2023-01-13T02:16:12.638Z,979.62
2023-01-13T02:17:12.713Z,979.66
2023-01-13T02:18:12.371Z,979.67
2023-01-13T02:19:12.177Z,979.70
2023-01-13T02:20:12.154Z,979.78
2023-01-13T02:21:12.136Z,979.55
2023-01-13T02:22:12.114Z,979.89
2023-01-13T02:23:12.424Z,979.82
2023-01-13T02:24:12.190Z,979.71
2023-01-13T02:25:12.106Z,979.72
2023-01-13T02:26:12.645Z,979.70
2023-01-13T02:27:12.560Z,979.63
2023-01-13T02:28:12.056Z,979.70
2023-01-13T02:29:12.633Z,979.79
2023-01-13T02:30:12.539Z,979.84
2023-01-13T02:31:12.492Z,979.87
2023-01-13T02:32:12.022Z,979.82
2023-01-13T02:33:12.023Z,980.04
2023-01-13T02:34:11.984Z,979.95
2023-01-13T02:35:12.575Z,980.05
2023-01-13T02:36:12.455Z,979.77
2023-01-13T02:37:12.354Z,980.08
2023-01-13T02:38:11.940Z,980.04
2023-01-13T02:39:11.965Z,980.00
2023-01-13T02:40:12.061Z,979.97
2023-01-13T02:41:11.884Z,979.99
2023-01-13T02:42:11.903Z,980.00
2023-01-13T02:43:11.859Z,979.94
2023-01-13T02:44:11.871Z,979.95
2023-01-13T02:45:12.305Z,979.91
2023-01-13T02:46:12.269Z,979.95
2023-01-13T02:47:12.111Z,979.96
2023-01-13T02:48:12.338Z,980.03
2023-01-13T02:49:11.795Z,980.04
2023-01-13T02:50:11.803Z,980.06
2023-01-13T02:51:12.327Z,980.12
2023-01-13T02:52:12.240Z,980.15
2023-01-13T02:53:12.112Z,980.04
2023-01-13T02:54:12.286Z,980.19
2023-01-13T02:55:12.173Z,980.09
2023-01-13T02:56:12.357Z,980.15
2023-01-13T02:57:12.415Z,980.08
2023-01-13T02:58:12.140Z,980.15
2023-01-13T02:59:12.036Z,980.16
2023-01-13T03:00:12.260Z,980.12
2023-01-13T03:01:12.835Z,980.07
2023-01-13T03:02:12.527Z,980.04
2023-01-13T03:03:12.229Z,979.99
2023-01-13T03:04:12.369Z,980.04
2023-01-13T03:05:12.301Z,979.98
2023-01-13T03:06:11.426Z,980.09
2023-01-13T03:07:11.485Z,980.10
2023-01-13T03:08:11.521Z,980.12
2023-01-13T03:09:11.587Z,980.15
2023-01-13T03:10:11.641Z,980.15
2023-01-13T03:11:11.691Z,980.08
2023-01-13T03:12:12.923Z,980.00
2023-01-13T03:13:11.789Z,979.89
2023-01-13T03:14:11.706Z,979.91
2023-01-13T03:15:11.919Z,979.89
2023-01-13T03:16:11.608Z,979.90
2023-01-13T03:17:11.291Z,979.98
2023-01-13T03:18:12.046Z,979.95
2023-01-13T03:19:11.333Z,980.03
2023-01-13T03:20:12.139Z,980.09
2023-01-13T03:21:12.038Z,980.07
2023-01-13T03:22:11.935Z,980.07
2023-01-13T03:23:12.414Z,980.13
2023-01-13T03:24:12.517Z,980.16
2023-01-13T03:25:11.921Z,980.16
2023-01-13T03:26:12.564Z,980.20
2023-01-13T03:27:11.987Z,980.01
2023-01-13T03:28:11.209Z,979.80
2023-01-13T03:29:11.176Z,979.73
2023-01-13T03:30:11.237Z,979.62
2023-01-13T03:31:11.292Z,979.83
2023-01-13T03:32:11.075Z,979.94
2023-01-13T03:33:11.081Z,979.88
2023-01-13T03:34:11.155Z,979.85
2023-01-13T03:35:11.032Z,979.81
2023-01-13T03:36:11.093Z,979.82
2023-01-13T03:37:11.037Z,979.73
2023-01-13T03:38:11.095Z,979.62
2023-01-13T03:39:11.154Z,979.63
2023-01-13T03:40:11.215Z,979.63
2023-01-13T03:41:11.307Z,979.66
2023-01-13T03:42:11.287Z,979.64
2023-01-13T03:43:11.389Z,979.65
2023-01-13T03:44:11.457Z,979.75
2023-01-13T03:45:11.524Z,979.66
2023-01-13T03:46:11.610Z,979.77
2023-01-13T03:47:11.650Z,979.67
2023-01-13T03:48:11.682Z,979.65
2023-01-13T03:49:11.169Z,979.59
2023-01-13T03:50:11.793Z,979.70
2023-01-13T03:51:11.427Z,979.67
2023-01-13T03:52:11.299Z,979.72
2023-01-13T03:53:11.543Z,979.67
2023-01-13T03:54:11.323Z,979.70
2023-01-13T03:55:11.596Z,979.66
2023-01-13T03:56:10.818Z,979.70
2023-01-13T03:57:11.666Z,979.65
2023-01-13T03:58:11.597Z,979.64
2023-01-13T03:59:11.474Z,979.65
2023-01-13T04:00:11.641Z,979.69
2023-01-13T04:01:11.633Z,979.62
2023-01-13T04:02:11.953Z,979.65
2023-01-13T04:03:10.680Z,979.61
2023-01-13T04:04:10.751Z,979.61
2023-01-13T04:05:10.756Z,979.70
2023-01-13T04:06:10.817Z,979.77
2023-01-13T04:07:10.876Z,979.70
2023-01-13T04:08:10.935Z,979.64
2023-01-13T04:09:10.993Z,979.70
2023-01-13T04:10:11.053Z,979.68
2023-01-13T04:11:11.103Z,979.74
2023-01-13T04:12:11.167Z,979.79
2023-01-13T04:13:11.221Z,979.82
2023-01-13T04:14:11.316Z,979.80
2023-01-13T04:15:11.344Z,979.82
2023-01-13T04:16:11.398Z,979.77
2023-01-13T04:17:10.596Z,979.72
2023-01-13T04:18:11.559Z,979.79
2023-01-13T04:19:11.350Z,979.76
2023-01-13T04:20:11.034Z,979.73
2023-01-13T04:21:11.403Z,979.77
2023-01-13T04:22:11.314Z,979.79
2023-01-13T04:23:11.224Z,979.82
2023-01-13T04:24:11.364Z,979.90
2023-01-13T04:25:10.663Z,979.83
2023-01-13T04:26:11.195Z,979.78
2023-01-13T04:27:10.402Z,979.76
2023-01-13T04:28:10.353Z,979.76
2023-01-13T04:29:14.046Z,979.74
2023-01-13T04:30:11.043Z,979.77
2023-01-13T04:31:11.383Z,979.79
2023-01-13T04:32:10.320Z,979.75
2023-01-13T04:33:10.429Z,979.82
2023-01-13T04:34:10.403Z,979.80
2023-01-13T04:35:10.468Z,979.77
2023-01-13T04:36:10.527Z,979.80
2023-01-13T04:37:10.334Z,979.82
2023-01-13T04:38:10.628Z,979.84
2023-01-13T04:39:10.305Z,979.86
2023-01-13T04:40:10.670Z,979.87
2023-01-13T04:41:10.808Z,979.86
2023-01-13T04:42:10.950Z,979.87
2023-01-13T04:43:10.153Z,979.80
2023-01-13T04:44:10.981Z,979.92
2023-01-13T04:45:10.883Z,979.87
2023-01-13T04:46:11.176Z,980.00
2023-01-13T04:47:10.974Z,979.94
2023-01-13T04:48:11.338Z,979.98
2023-01-13T04:49:11.018Z,980.03
2023-01-13T04:50:10.055Z,980.02
2023-01-13T04:51:10.800Z,979.91
2023-01-13T04:52:10.984Z,980.02
2023-01-13T04:53:10.911Z,980.03
2023-01-13T04:54:10.779Z,979.98
2023-01-13T04:55:10.959Z,980.02
2023-01-13T04:56:10.863Z,979.99
2023-01-13T04:57:10.763Z,980.01
2023-01-13T04:58:10.924Z,980.01
2023-01-13T04:59:09.946Z,980.00
2023-01-13T05:00:10.017Z,979.93
2023-01-13T05:01:10.159Z,979.93
2023-01-13T05:02:10.200Z,979.88
2023-01-13T05:03:10.175Z,980.00
2023-01-13T05:04:10.309Z,979.98
2023-01-13T05:05:10.350Z,980.06
2023-01-13T05:06:10.328Z,980.06
2023-01-13T05:07:09.845Z,979.95
2023-01-13T05:08:10.440Z,979.97
2023-01-13T05:09:10.491Z,979.92
2023-01-13T05:10:10.551Z,979.90
2023-01-13T05:11:10.012Z,979.84
2023-01-13T05:12:09.807Z,979.77
2023-01-13T05:13:10.501Z,979.74
2023-01-13T05:14:10.038Z,979.77
2023-01-13T05:15:10.574Z,979.81
2023-01-13T05:16:11.421Z,979.80
2023-01-13T05:17:09.881Z,979.79
2023-01-13T05:18:10.549Z,979.81
2023-01-13T05:19:09.783Z,979.70
2023-01-13T05:20:10.600Z,979.77
2023-01-13T05:21:10.037Z,979.65
2023-01-13T05:22:10.027Z,979.59
2023-01-13T05:23:10.590Z,979.68
2023-01-13T05:24:10.487Z,979.67
2023-01-13T05:25:10.371Z,979.76
2023-01-13T05:26:09.624Z,979.78
2023-01-13T05:27:09.861Z,979.77
2023-01-13T05:28:09.612Z,979.89
2023-01-13T05:29:09.629Z,979.92
2023-01-13T05:30:09.679Z,979.90
2023-01-13T05:31:09.880Z,979.92
2023-01-13T05:32:09.806Z,979.87
2023-01-13T05:33:09.856Z,979.96
2023-01-13T05:34:09.914Z,979.94
2023-01-13T05:35:09.992Z,979.92
2023-01-13T05:36:10.052Z,979.95
2023-01-13T05:37:09.743Z,980.04
2023-01-13T05:38:10.150Z,980.08
2023-01-13T05:39:10.197Z,980.01
2023-01-13T05:40:10.230Z,980.04
2023-01-13T05:41:10.133Z,980.04
2023-01-13T05:42:10.295Z,980.05
2023-01-13T05:43:10.430Z,980.01
2023-01-13T05:44:10.005Z,979.99
2023-01-13T05:45:09.323Z,980.05
2023-01-13T05:46:10.204Z,980.03
2023-01-13T05:47:09.304Z,980.06
2023-01-13T05:48:09.378Z,980.07
2023-01-13T05:49:09.385Z,980.08
2023-01-13T05:50:09.489Z,980.06
2023-01-13T05:51:09.508Z,980.03
2023-01-13T05:52:09.268Z,980.03
2023-01-13T05:53:09.316Z,979.99
2023-01-13T05:54:09.261Z,979.99
2023-01-13T05:55:09.442Z,980.04
2023-01-13T05:56:09.215Z,980.00
2023-01-13T05:57:09.253Z,980.00
2023-01-13T05:58:09.386Z,979.98
2023-01-13T05:59:09.835Z,979.97
2023-01-13T06:00:09.441Z,979.98
2023-01-13T06:01:10.001Z,980.02
2023-01-13T06:02:09.534Z,979.93
2023-01-13T06:03:09.679Z,980.00
2023-01-13T06:04:09.658Z,979.96
2023-01-13T06:05:09.687Z,980.00
2023-01-13T06:06:09.719Z,979.92
2023-01-13T06:07:09.839Z,979.93
2023-01-13T06:08:09.575Z,979.90
2023-01-13T06:09:09.855Z,979.90
2023-01-13T06:10:09.917Z,979.91
2023-01-13T06:11:09.168Z,979.91
2023-01-13T06:12:09.143Z,979.94
2023-01-13T06:13:09.620Z,979.91
2023-01-13T06:14:09.583Z,979.97
2023-01-13T06:15:09.405Z,979.91
2023-01-13T06:16:09.440Z,979.93
2023-01-13T06:17:09.791Z,979.88
2023-01-13T06:18:10.013Z,979.90
2023-01-13T06:19:09.451Z,979.87
2023-01-13T06:20:09.023Z,979.93
2023-01-13T06:21:14.854Z,979.88
2023-01-13T06:22:08.861Z,979.91
2023-01-13T06:23:08.832Z,979.93
2023-01-13T06:24:08.942Z,979.89
2023-01-13T06:25:08.814Z,979.88
2023-01-13T06:26:09.116Z,979.92
2023-01-13T06:27:08.795Z,979.81
2023-01-13T06:28:08.813Z,979.85
2023-01-13T06:29:08.831Z,979.80
2023-01-13T06:30:08.812Z,979.81
2023-01-13T06:31:08.884Z,979.76
2023-01-13T06:32:08.852Z,979.78
2023-01-13T06:33:08.702Z,979.79
2023-01-13T06:34:08.726Z,979.86
2023-01-13T06:35:08.796Z,979.81
2023-01-13T06:36:08.858Z,979.75
2023-01-13T06:37:08.794Z,979.90
2023-01-13T06:38:08.761Z,979.69
2023-01-13T06:39:08.786Z,979.71
2023-01-13T06:40:08.761Z,979.83
2023-01-13T06:41:08.772Z,979.83
2023-01-13T06:42:08.779Z,979.83
2023-01-13T06:43:08.770Z,979.86
2023-01-13T06:44:08.793Z,979.94
2023-01-13T06:45:08.783Z,979.88
2023-01-13T06:46:08.773Z,979.87
2023-01-13T06:47:08.844Z,979.77
2023-01-13T06:48:08.774Z,979.70
2023-01-13T06:49:08.774Z,979.80
2023-01-13T06:50:08.544Z,979.87
2023-01-13T06:51:08.761Z,979.96
2023-01-13T06:52:08.856Z,979.95
2023-01-13T06:53:08.771Z,979.96
2023-01-13T06:54:08.777Z,979.88
2023-01-13T06:55:08.862Z,979.81
2023-01-13T06:56:08.353Z,979.79
2023-01-13T06:57:08.371Z,979.80
2023-01-13T06:58:08.435Z,979.79
2023-01-13T06:59:08.521Z,979.80
2023-01-13T07:00:08.546Z,979.88
2023-01-13T07:01:08.490Z,979.84
2023-01-13T07:02:08.745Z,979.87
2023-01-13T07:03:08.710Z,979.84
2023-01-13T07:04:08.312Z,979.88
2023-01-13T07:05:08.221Z,979.85
2023-01-13T07:06:08.632Z,979.82
2023-01-13T07:07:08.202Z,979.78
2023-01-13T07:08:08.849Z,979.82
2023-01-13T07:09:08.864Z,979.82
2023-01-13T07:10:08.805Z,979.80
2023-01-13T07:11:08.249Z,979.75
2023-01-13T07:12:08.759Z,979.72
2023-01-13T07:13:08.758Z,979.74
2023-01-13T07:14:08.767Z,979.84
2023-01-13T07:15:08.298Z,979.79
2023-01-13T07:16:08.863Z,979.89
2023-01-13T07:17:08.775Z,979.93
2023-01-13T07:18:08.760Z,979.98
2023-01-13T07:19:08.827Z,979.86
2023-01-13T07:20:08.755Z,979.96
2023-01-13T07:21:08.753Z,980.01
2023-01-13T07:22:08.872Z,980.01
2023-01-13T07:23:08.775Z,980.10
2023-01-13T07:24:08.018Z,980.08
2023-01-13T07:25:08.860Z,980.14
2023-01-13T07:26:07.968Z,980.12
2023-01-13T07:27:07.928Z,980.05
2023-01-13T07:28:07.977Z,980.12
2023-01-13T07:29:08.037Z,980.02
2023-01-13T07:30:08.185Z,980.05
2023-01-13T07:31:08.096Z,980.13
2023-01-13T07:32:08.295Z,980.01
2023-01-13T07:33:08.295Z,980.07
2023-01-13T07:34:08.298Z,980.11
2023-01-13T07:35:08.233Z,980.07
2023-01-13T07:36:08.445Z,980.17
2023-01-13T07:37:07.851Z,980.18
2023-01-13T07:38:08.539Z,980.12
2023-01-13T07:39:08.537Z,980.17
2023-01-13T07:40:07.782Z,980.12
2023-01-13T07:41:07.757Z,980.16
2023-01-13T07:42:07.834Z,980.08
2023-01-13T07:43:08.052Z,980.07
2023-01-13T07:44:08.805Z,980.15
2023-01-13T07:45:10.278Z,980.19
2023-01-13T07:46:07.771Z,980.13
2023-01-13T07:47:08.528Z,980.13
2023-01-13T07:48:07.700Z,980.21
2023-01-13T07:49:08.585Z,980.04
2023-01-13T07:50:08.488Z,980.04
2023-01-13T07:51:08.400Z,980.11
2023-01-13T07:52:08.849Z,980.09
2023-01-13T07:53:08.469Z,980.24
2023-01-13T07:54:08.354Z,980.11
2023-01-13T07:55:08.022Z,980.18
2023-01-13T07:56:08.412Z,980.13
2023-01-13T07:57:07.588Z,980.28
2023-01-13T07:58:07.673Z,980.25
2023-01-13T07:59:07.698Z,980.34
2023-01-13T08:00:07.757Z,980.41
2023-01-13T08:01:07.932Z,980.42
2023-01-13T08:02:07.657Z,980.45
2023-01-13T08:03:08.007Z,980.42
2023-01-13T08:04:07.494Z,980.41
2023-01-13T08:05:11.699Z,980.43
2023-01-13T08:06:07.474Z,980.39
2023-01-13T08:07:07.420Z,980.28
2023-01-13T08:08:07.420Z,980.31
2023-01-13T08:09:07.416Z,980.39
2023-01-13T08:10:07.403Z,980.39
2023-01-13T08:11:07.460Z,980.41
2023-01-13T08:12:07.416Z,980.40
2023-01-13T08:13:07.314Z,980.34
2023-01-13T08:14:07.341Z,980.41
2023-01-13T08:15:07.411Z,980.37
2023-01-13T08:16:07.415Z,980.35
2023-01-13T08:17:07.480Z,980.28
2023-01-13T08:18:07.431Z,980.48
2023-01-13T08:19:07.313Z,980.31
2023-01-13T08:20:07.413Z,980.45
2023-01-13T08:21:07.441Z,980.42
2023-01-13T08:22:07.203Z,980.40
2023-01-13T08:23:07.699Z,980.49
2023-01-13T08:24:07.426Z,980.52
2023-01-13T08:25:07.413Z,980.46
2023-01-13T08:26:07.431Z,980.46
2023-01-13T08:27:07.415Z,980.34
2023-01-13T08:28:07.410Z,980.54
2023-01-13T08:29:07.341Z,980.44
2023-01-13T08:30:07.139Z,980.58
2023-01-13T08:31:07.333Z,980.53
2023-01-13T08:32:07.433Z,980.45
2023-01-13T08:33:07.433Z,980.50
2023-01-13T08:34:07.073Z,980.55
2023-01-13T08:35:07.131Z,980.62
2023-01-13T08:36:07.207Z,980.54
2023-01-13T08:37:07.175Z,980.63
2023-01-13T08:38:07.251Z,980.69
2023-01-13T08:39:07.265Z,980.68
2023-01-13T08:40:08.393Z,980.63
2023-01-13T08:41:07.282Z,980.65
2023-01-13T08:42:07.151Z,980.68
2023-01-13T08:43:07.039Z,980.69
2023-01-13T08:44:07.312Z,980.64
2023-01-13T08:45:07.442Z,980.71
2023-01-13T08:46:07.430Z,980.60
2023-01-13T08:47:07.462Z,980.71
2023-01-13T08:48:06.879Z,980.70
2023-01-13T08:49:07.489Z,980.70
2023-01-13T08:50:07.422Z,980.80
2023-01-13T08:51:07.408Z,980.71
2023-01-13T08:52:07.412Z,980.84
2023-01-13T08:53:07.439Z,980.78
2023-01-13T08:54:06.838Z,980.79
2023-01-13T08:55:07.513Z,980.75
2023-01-13T08:56:07.048Z,980.78
2023-01-13T08:57:06.959Z,980.67
2023-01-13T08:58:15.219Z,980.78
2023-01-13T08:59:07.766Z,980.68
2023-01-13T09:00:07.440Z,980.76
2023-01-13T09:01:07.534Z,980.75
2023-01-13T09:02:07.554Z,980.71
2023-01-13T09:03:07.420Z,980.72
2023-01-13T09:04:07.550Z,980.77
2023-01-13T09:05:07.508Z,980.81
2023-01-13T09:06:07.461Z,980.73
2023-01-13T09:07:07.039Z,980.85
2023-01-13T09:08:07.424Z,980.82
2023-01-13T09:09:06.890Z,980.79
2023-01-13T09:10:07.505Z,980.71
2023-01-13T09:11:07.418Z,980.67
2023-01-13T09:12:07.010Z,980.82
2023-01-13T09:13:06.828Z,980.86
2023-01-13T09:14:07.358Z,980.83
2023-01-13T09:15:07.298Z,980.90
2023-01-13T09:16:07.458Z,980.76
2023-01-13T09:17:07.302Z,980.81
2023-01-13T09:18:06.800Z,980.80
2023-01-13T09:19:06.749Z,980.85
2023-01-13T09:20:07.083Z,980.81
2023-01-13T09:21:07.208Z,980.83
2023-01-13T09:22:06.431Z,980.86
2023-01-13T09:23:09.711Z,980.84
2023-01-13T09:24:06.407Z,980.74
2023-01-13T09:25:06.619Z,980.86
2023-01-13T09:26:06.546Z,980.83
2023-01-13T09:27:06.558Z,980.89
2023-01-13T09:28:06.579Z,981.05
2023-01-13T09:29:06.674Z,980.95
2023-01-13T09:30:06.621Z,980.96
2023-01-13T09:31:06.396Z,980.97
2023-01-13T09:32:06.684Z,980.96
2023-01-13T09:33:06.709Z,981.05
2023-01-13T09:34:06.734Z,981.06
2023-01-13T09:35:06.760Z,980.89
2023-01-13T09:36:06.774Z,981.08
2023-01-13T09:37:06.826Z,981.18
2023-01-13T09:38:06.377Z,981.16
2023-01-13T09:39:06.853Z,981.21
2023-01-13T09:40:06.194Z,981.14
2023-01-13T09:41:06.978Z,981.15
2023-01-13T09:42:06.956Z,981.14
2023-01-13T09:43:07.015Z,981.15
2023-01-13T09:44:06.125Z,981.07
2023-01-13T09:45:06.928Z,981.08
2023-01-13T09:46:06.590Z,981.14
2023-01-13T09:47:06.975Z,981.00
2023-01-13T09:48:06.155Z,981.07
2023-01-13T09:49:06.801Z,981.08
2023-01-13T09:50:06.969Z,981.08
2023-01-13T09:51:06.920Z,981.18
2023-01-13T09:52:06.763Z,981.13
2023-01-13T09:53:06.026Z,981.25
2023-01-13T09:54:06.815Z,981.15
2023-01-13T09:55:06.736Z,981.05
2023-01-13T09:56:06.884Z,981.15
2023-01-13T09:57:06.798Z,981.18
2023-01-13T09:58:08.633Z,981.15
2023-01-13T09:59:05.943Z,981.18
2023-01-13T10:00:06.085Z,981.19
2023-01-13T10:01:06.067Z,981.24
2023-01-13T10:02:06.085Z,981.17
2023-01-13T10:03:06.190Z,981.20
2023-01-13T10:04:07.252Z,981.19
2023-01-13T10:05:06.903Z,981.11
2023-01-13T10:06:06.273Z,981.25
2023-01-13T10:07:06.342Z,981.19
2023-01-13T10:08:06.398Z,981.10
2023-01-13T10:09:06.446Z,981.09
2023-01-13T10:10:09.256Z,981.07
2023-01-13T10:11:06.626Z,981.10
2023-01-13T10:12:06.669Z,981.06
2023-01-13T10:13:06.593Z,981.14
2023-01-13T10:14:05.853Z,981.14
2023-01-13T10:15:06.578Z,981.13
2023-01-13T10:16:06.571Z,981.11
2023-01-13T10:17:06.654Z,981.15
2023-01-13T10:18:06.563Z,981.13
2023-01-13T10:19:06.492Z,981.08
2023-01-13T10:20:06.379Z,981.06
2023-01-13T10:21:06.567Z,981.05
2023-01-13T10:22:08.521Z,981.00
2023-01-13T10:23:06.343Z,981.13
2023-01-13T10:24:05.612Z,981.04
2023-01-13T10:25:05.674Z,981.11
2023-01-13T10:26:05.618Z,981.04
2023-01-13T10:27:05.597Z,981.09
2023-01-13T10:28:05.543Z,980.98
2023-01-13T10:29:05.560Z,981.22
2023-01-13T10:30:05.615Z,981.23
2023-01-13T10:31:05.712Z,981.03
2023-01-13T10:32:05.521Z,981.11
2023-01-13T10:33:05.521Z,981.08
2023-01-13T10:34:05.580Z,981.14
2023-01-13T10:35:05.731Z,981.15
2023-01-13T10:36:05.756Z,981.10
2023-01-13T10:37:05.443Z,981.02
2023-01-13T10:38:05.815Z,980.94
2023-01-13T10:39:05.678Z,980.93
2023-01-13T10:40:05.945Z,981.04
2023-01-13T10:41:05.983Z,981.01
2023-01-13T10:42:06.330Z,980.98
2023-01-13T10:43:06.257Z,981.01
2023-01-13T10:44:09.327Z,981.01
2023-01-13T10:45:06.238Z,981.02
2023-01-13T10:46:05.827Z,981.12
2023-01-13T10:47:06.081Z,981.22
2023-01-13T10:48:06.313Z,981.06
2023-01-13T10:49:05.290Z,981.15
2023-01-13T10:50:05.651Z,981.13
2023-01-13T10:51:06.049Z,981.08
2023-01-13T10:52:06.485Z,981.13
2023-01-13T10:53:06.032Z,980.99
2023-01-13T10:54:06.197Z,981.09
2023-01-13T10:55:06.081Z,981.07
2023-01-13T10:56:06.000Z,981.10
2023-01-13T10:57:06.795Z,981.22
2023-01-13T10:58:06.050Z,981.03
2023-01-13T10:59:05.220Z,981.21
2023-01-13T11:00:05.215Z,981.04
2023-01-13T11:01:05.192Z,981.17
2023-01-13T11:02:23.460Z,981.14
2023-01-13T11:03:07.191Z,981.15
2023-01-13T11:04:06.540Z,981.33
2023-01-13T11:05:05.525Z,981.35
2023-01-13T11:06:05.565Z,981.15
2023-01-13T11:07:05.064Z,981.24
2023-01-13T11:08:05.678Z,981.17
2023-01-13T11:09:05.113Z,981.17
2023-01-13T11:10:05.772Z,981.52
2023-01-13T11:11:06.610Z,981.17
2023-01-13T11:12:04.992Z,981.10
2023-01-13T11:13:05.934Z,981.15
2023-01-13T11:14:05.059Z,981.20
2023-01-13T11:15:05.041Z,981.14
2023-01-13T11:16:05.894Z,981.17
2023-01-13T11:17:05.768Z,981.17
2023-01-13T11:18:05.683Z,981.10
2023-01-13T11:19:05.699Z,981.10
2023-01-13T11:20:05.745Z,981.11
2023-01-13T11:21:05.641Z,981.17
2023-01-13T11:22:04.843Z,981.08
2023-01-13T11:23:05.699Z,981.13
2023-01-13T11:24:05.008Z,981.10
2023-01-13T11:25:04.855Z,981.20
2023-01-13T11:26:05.218Z,981.12
2023-01-13T11:27:05.598Z,981.21
2023-01-13T11:28:04.770Z,981.27
2023-01-13T11:29:04.918Z,981.28
2023-01-13T11:30:04.927Z,981.12
2023-01-13T11:31:04.955Z,981.02
2023-01-13T11:32:04.973Z,981.21
2023-01-13T11:33:05.033Z,980.99
2023-01-13T11:34:05.077Z,981.06
2023-01-13T11:35:05.149Z,980.95
2023-01-13T11:36:05.199Z,981.12
2023-01-13T11:37:04.669Z,981.10
2023-01-13T11:38:05.309Z,981.11
2023-01-13T11:39:05.369Z,981.11
2023-01-13T11:40:05.388Z,981.11
2023-01-13T11:41:04.837Z,981.05
2023-01-13T11:42:05.419Z,981.15
2023-01-13T11:43:04.647Z,981.15
2023-01-13T11:44:05.328Z,981.10
2023-01-13T11:45:05.476Z,981.19
2023-01-13T11:46:04.613Z,981.09
2023-01-13T11:47:04.590Z,981.06
2023-01-13T11:48:05.368Z,980.98
2023-01-13T11:49:05.262Z,981.16
2023-01-13T11:50:05.430Z,981.07
2023-01-13T11:51:04.689Z,981.07
2023-01-13T11:52:05.324Z,980.98
2023-01-13T11:53:05.423Z,980.97
2023-01-13T11:54:05.285Z,981.02
2023-01-13T11:55:05.206Z,980.96
2023-01-13T11:56:05.358Z,981.16
2023-01-13T11:57:04.405Z,980.98
2023-01-13T11:58:04.406Z,980.99
2023-01-13T11:59:04.475Z,981.00
2023-01-13T12:00:04.523Z,980.94
2023-01-13T12:01:05.181Z,981.09
2023-01-13T12:02:04.676Z,981.12
2023-01-13T12:03:04.692Z,981.07
2023-01-13T12:04:04.298Z,981.09
2023-01-13T12:05:04.275Z,981.20
2023-01-13T12:06:04.286Z,981.19
2023-01-13T12:07:04.266Z,981.17
2023-01-13T12:08:04.269Z,981.11
2023-01-13T12:09:04.408Z,981.10
2023-01-13T12:10:05.023Z,981.15
2023-01-13T12:11:04.259Z,981.16
2023-01-13T12:12:04.181Z,981.19
2023-01-13T12:13:04.252Z,981.17
2023-01-13T12:14:04.234Z,981.18
2023-01-13T12:15:04.285Z,981.17
2023-01-13T12:16:06.965Z,981.21
2023-01-13T12:17:04.620Z,981.11
2023-01-13T12:18:04.233Z,981.11
2023-01-13T12:19:04.256Z,981.18
2023-01-13T12:20:04.254Z,981.09
2023-01-13T12:21:04.086Z,981.27
2023-01-13T12:22:04.167Z,981.24
2023-01-13T12:23:04.044Z,981.19
2023-01-13T12:24:04.256Z,981.19
2023-01-13T12:25:04.343Z,981.26
2023-01-13T12:26:04.345Z,981.19
2023-01-13T12:27:04.002Z,981.19
2023-01-13T12:28:03.981Z,981.18